Time;durP1;ratioP1;P1;durP2;ratioP2;P2;SDS_P1;SDS_P2;PMS_P1;PMS_P2;Temp;Humidity;BMP_temperature;BMP_pressure;BME280_temperature;BME280_humidity;BME280_pressure;Samples;Min_cycle;Max_cycle;Signal;HPM_P1;HPM_P2
2022/03/18 00:02:22;;;;;;;;;36.33;29.33;;;;;24.74;25.71;103162.34;5055196;28;45400;-77
2022/03/18 00:04:49;;;;;;;;;29.33;26.67;;;;;24.59;25.61;103138.78;5055890;28;45337;-77
2022/03/18 00:07:23;;;;;;;;;35.00;33.33;;;;;24.85;25.30;103159.56;5055630;28;45650;-76
2022/03/18 00:09:52;;;;;;;;;33.33;29.00;;;;;24.95;25.21;103161.38;5055729;28;45473;-77
2022/03/18 00:12:18;;;;;;;;;31.67;30.00;;;;;25.00;25.09;103159.53;5055268;28;45576;-76
2022/03/18 00:14:43;;;;;;;;;36.67;32.00;;;;;24.95;25.33;103155.94;5054875;28;45534;-76
2022/03/18 00:17:11;;;;;;;;;40.33;33.67;;;;;24.99;25.35;103149.59;5055415;28;45475;-76
2022/03/18 00:19:38;;;;;;;;;30.67;25.67;;;;;24.93;25.12;103146.88;5055406;28;46398;-76
2022/03/18 00:22:04;;;;;;;;;33.00;29.67;;;;;24.84;25.24;103157.78;5055306;28;45618;-75
2022/03/18 00:24:32;;;;;;;;;39.00;32.33;;;;;24.71;25.21;103148.78;5055463;28;45439;-75
2022/03/18 00:27:01;;;;;;;;;34.33;34.33;;;;;24.57;25.52;103156.91;5070230;27;45316;-75
2022/03/18 00:29:27;;;;;;;;;36.67;35.00;;;;;24.53;25.50;103155.09;5075284;27;46048;-75
2022/03/18 00:31:53;;;;;;;;;38.00;32.33;;;;;24.46;25.89;103126.16;5075373;27;45337;-75
2022/03/18 00:34:22;;;;;;;;;41.67;35.00;;;;;24.72;25.27;103157.81;5075427;28;45511;-75
2022/03/18 00:36:48;;;;;;;;;31.33;27.67;;;;;24.63;25.86;103159.63;5075624;27;45734;-75
2022/03/18 00:39:14;;;;;;;;;39.67;35.33;;;;;24.27;25.80;103114.41;5075196;28;45950;-75
2022/03/18 00:41:41;;;;;;;;;32.33;28.67;;;;;24.29;25.77;103129.78;5075514;27;45450;-75
2022/03/18 00:44:06;;;;;;;;;40.67;36.00;;;;;24.34;25.96;103153.31;5075695;27;45277;-75
2022/03/18 00:46:31;;;;;;;;;38.33;35.00;;;;;24.37;26.17;103162.34;5075041;28;45363;-75
2022/03/18 00:54:25;;;;;;;;;43.33;36.33;;;;;24.31;25.79;103165.94;5075180;28;45567;-76
2022/03/18 00:56:50;;;;;;;;;34.67;30.33;;;;;24.07;26.09;103101.78;5075249;28;45431;-75
2022/03/18 00:59:15;;;;;;;;;36.00;33.00;;;;;24.51;25.60;103162.31;5074725;27;47279;-75
2022/03/18 01:01:41;;;;;;;;;34.33;30.33;;;;;24.52;25.63;103152.41;5075054;27;45406;-75
2022/03/18 01:04:06;;;;;;;;;39.33;34.00;;;;;24.53;25.47;103170.47;5075316;27;45450;-75
2022/03/18 01:06:35;;;;;;;;;38.00;31.50;;;;;24.55;25.93;103157.81;5075270;27;45573;-75
2022/03/18 01:09:04;;;;;;;;;38.00;33.33;;;;;24.53;25.66;103144.25;5073837;28;46927;-75
2022/03/18 01:11:30;;;;;;;;;39.33;34.67;;;;;24.43;25.44;103135.22;5074691;28;45447;-76
2022/03/18 01:13:55;;;;;;;;;41.33;36.33;;;;;24.69;25.54;103160.53;5075045;27;45400;-75
2022/03/18 01:16:21;;;;;;;;;38.33;33.00;;;;;24.76;25.15;103170.47;5075068;27;45691;-76
2022/03/18 01:18:46;;;;;;;;;38.67;36.00;;;;;24.61;25.40;103157.81;5074973;27;45846;-75
2022/03/18 01:21:11;;;;;;;;;43.00;35.33;;;;;24.66;25.13;103178.63;5074863;27;45434;-75
2022/03/18 01:23:37;;;;;;;;;37.67;30.67;;;;;24.57;25.29;103170.47;5075292;27;45344;-75
2022/03/18 01:26:02;;;;;;;;;38.00;32.33;;;;;24.38;25.70;103145.16;5076611;27;45530;-75
2022/03/18 01:28:28;;;;;;;;;36.00;35.00;;;;;24.34;25.78;103161.44;5077045;28;46219;-75
2022/03/18 01:30:53;;;;;;;;;45.33;39.67;;;;;24.43;26.03;103175.91;5077991;28;45431;-75
2022/03/18 01:33:21;;;;;;;;;42.33;36.33;;;;;24.29;25.46;103148.78;5078433;27;45462;-75
2022/03/18 01:35:47;;;;;;;;;47.67;38.00;;;;;24.42;25.80;103184.94;5078524;28;45594;-75
2022/03/18 01:38:12;;;;;;;;;35.33;35.00;;;;;24.26;25.91;103169.56;5078297;27;45414;-75
2022/03/18 01:40:37;;;;;;;;;41.00;33.00;;;;;24.19;25.94;103165.06;5078306;28;45395;-76
2022/03/18 01:43:09;;;;;;;;;39.00;36.67;;;;;24.42;25.46;103187.66;5078186;27;45379;-75
2022/03/18 01:45:34;;;;;;;;;35.33;32.33;;;;;24.38;25.93;103176.81;5078324;27;45375;-75
2022/03/18 01:48:00;;;;;;;;;46.00;37.67;;;;;24.42;25.46;103174.09;5078291;27;45548;-75
2022/03/18 01:50:25;;;;;;;;;32.33;28.33;;;;;24.48;25.77;103174.09;5078000;28;45526;-76
2022/03/18 01:52:52;;;;;;;;;35.33;30.33;;;;;24.10;25.77;103104.47;5077082;27;45272;-75
2022/03/18 01:55:20;;;;;;;;;36.67;35.33;;;;;24.43;25.57;103175.00;5076940;28;45570;-75
2022/03/18 01:57:45;;;;;;;;;29.67;29.33;;;;;24.42;25.46;103168.66;5077552;27;47211;-75
2022/03/18 02:00:11;;;;;;;;;34.00;32.67;;;;;24.39;25.49;103178.63;5077806;27;45357;-76
2022/03/18 02:02:37;;;;;;;;;41.00;37.33;;;;;24.28;25.87;103178.63;5078087;27;45257;-75
2022/03/18 02:05:05;;;;;;;;;36.00;32.00;;;;;24.04;25.95;103144.28;5078030;28;45402;-75
2022/03/18 02:07:30;;;;;;;;;41.67;33.67;;;;;24.29;25.78;103180.44;5077575;27;45511;-75
2022/03/18 02:09:55;;;;;;;;;41.00;36.00;;;;;24.25;25.30;103179.53;5077826;27;45435;-75
2022/03/18 02:12:21;;;;;;;;;28.67;28.67;;;;;24.21;25.33;103169.56;5077406;27;45491;-75
2022/03/18 02:14:47;;;;;;;;;43.33;39.67;;;;;24.17;25.88;103161.44;5077866;27;45541;-75
2022/03/18 02:17:15;;;;;;;;;35.67;33.00;;;;;23.97;25.64;103148.78;5077646;27;45366;-75
2022/03/18 02:19:41;;;;;;;;;47.67;36.00;;;;;24.19;25.66;103184.97;5077569;27;45544;-75
2022/03/18 02:22:11;;;;;;;;;41.67;38.00;;;;;24.17;25.87;103177.72;5077673;27;45388;-75
2022/03/18 02:24:41;;;;;;;;;39.33;35.00;;;;;24.15;25.76;103178.63;5077362;28;45308;-75
2022/03/18 02:27:06;;;;;;;;;46.00;36.33;;;;;23.99;25.72;103152.38;5077171;27;45932;-75
2022/03/18 02:29:32;;;;;;;;;45.33;35.67;;;;;24.07;25.52;103180.41;5077181;28;45458;-75
2022/03/18 02:31:57;;;;;;;;;46.67;36.00;;;;;24.03;25.65;103177.72;5077767;27;45421;-75
2022/03/18 02:34:23;;;;;;;;;44.00;35.33;;;;;24.11;25.66;103184.06;5077242;27;45356;-75
2022/03/18 02:36:49;;;;;;;;;38.67;36.00;;;;;24.04;25.86;103177.72;5076968;27;46048;-74
2022/03/18 02:39:14;;;;;;;;;43.67;33.33;;;;;23.95;25.91;103186.75;5076787;27;45553;-75
2022/03/18 02:41:40;;;;;;;;;36.00;36.00;;;;;24.00;25.68;103183.13;5076865;27;45424;-75
2022/03/18 02:44:06;;;;;;;;;46.00;37.33;;;;;23.89;26.03;103180.41;5077571;27;45315;-75
2022/03/18 02:46:32;;;;;;;;;44.33;37.67;;;;;23.74;25.88;103145.97;5077141;27;46398;-75
2022/03/18 02:49:01;;;;;;;;;35.00;30.33;;;;;23.80;25.89;103136.06;5077304;27;45532;-75
2022/03/18 02:51:27;;;;;;;;;38.67;36.00;;;;;24.01;25.80;103177.72;5077126;27;45469;-75
2022/03/18 02:53:54;;;;;;;;;43.00;35.00;;;;;23.98;26.03;103175.88;5077021;27;45454;-75
2022/03/18 02:56:20;;;;;;;;;35.00;33.67;;;;;23.94;25.50;103163.22;5076516;27;45462;-75
2022/03/18 02:58:45;;;;;;;;;40.33;34.67;;;;;23.97;25.38;103171.38;5076808;27;45411;-75
2022/03/18 03:01:11;;;;;;;;;41.33;36.00;;;;;23.92;25.34;103162.34;5077069;27;45300;-75
2022/03/18 03:03:36;;;;;;;;;41.33;36.33;;;;;23.78;25.56;103164.06;5076712;27;45543;-75
2022/03/18 03:08:45;;;;;;;;;46.00;39.00;;;;;23.70;25.46;103171.28;5076838;28;45403;-75
2022/03/18 03:11:10;;;;;;;;;38.00;35.33;;;;;23.81;25.61;103192.09;5076609;27;45403;-75
2022/03/18 03:13:37;;;;;;;;;37.67;33.67;;;;;23.71;25.82;103174.00;5076648;27;45225;-75
2022/03/18 03:16:02;;;;;;;;;40.67;38.33;;;;;23.87;25.64;103185.81;5076836;28;45315;-75
2022/03/18 03:18:28;;;;;;;;;43.00;36.33;;;;;23.85;25.38;103190.28;5076701;27;45309;-75
2022/03/18 03:20:57;;;;;;;;;41.33;36.33;;;;;23.54;25.44;103138.72;5076482;27;45213;-75
2022/03/18 03:23:25;;;;;;;;;41.33;36.00;;;;;23.78;25.67;103178.53;5076740;28;45363;-75
2022/03/18 03:25:52;;;;;;;;;42.33;37.00;;;;;23.66;25.33;103170.38;5076021;28;46202;-75
2022/03/18 03:28:18;;;;;;;;;48.00;36.33;;;;;23.58;25.79;103193.81;5076287;27;45409;-75
2022/03/18 03:30:44;;;;;;;;;36.00;35.33;;;;;23.56;25.91;103196.53;5076326;28;45332;-75
2022/03/18 03:33:10;;;;;;;;;43.67;38.00;;;;;23.53;25.82;103198.31;5076498;27;45325;-75
2022/03/18 03:35:36;;;;;;;;;44.33;36.00;;;;;23.56;25.85;103196.53;5076347;27;46140;-75
2022/03/18 03:38:01;;;;;;;;;42.33;36.67;;;;;23.53;25.83;103196.53;5076258;28;45400;-75
2022/03/18 03:40:27;;;;;;;;;45.00;40.33;;;;;23.52;25.74;103207.38;5075922;28;45485;-75
2022/03/18 03:42:53;;;;;;;;;39.67;36.33;;;;;23.14;25.85;103165.66;5076196;27;45312;-75
2022/03/18 03:45:18;;;;;;;;;51.33;40.33;;;;;23.20;25.79;103171.09;5076162;28;46106;-75
2022/03/18 03:47:43;;;;;;;;;38.67;36.67;;;;;22.96;25.92;103142.06;5075779;28;45392;-75
2022/03/18 03:50:10;;;;;;;;;42.33;38.33;;;;;23.42;25.46;103209.13;5075207;28;45640;-75
2022/03/18 03:52:36;;;;;;;;;40.67;37.33;;;;;23.46;25.40;103178.44;5076282;27;45328;-75
2022/03/18 03:55:07;;;;;;;;;45.00;39.67;;;;;23.34;25.56;103176.56;5075727;27;46005;-75
2022/03/18 03:57:33;;;;;;;;;41.33;37.33;;;;;23.42;25.49;103201.91;5075939;27;45422;-75
2022/03/18 03:59:58;;;;;;;;;42.67;38.67;;;;;23.31;25.98;103210.88;5076261;27;45383;-75
2022/03/18 04:02:24;;;;;;;;;48.33;38.00;;;;;22.90;25.69;103156.47;5076165;28;45585;-75
2022/03/18 04:04:50;;;;;;;;;40.00;36.33;;;;;22.90;25.77;103166.41;5075660;27;46307;-75
2022/03/18 04:07:16;;;;;;;;;47.33;39.00;;;;;22.98;25.92;103217.88;5076182;27;45381;-75
2022/03/18 04:09:42;;;;;;;;;51.00;40.00;;;;;22.84;25.81;103194.34;5074465;28;45391;-74
2022/03/18 04:12:08;;;;;;;;;42.00;37.00;;;;;22.25;26.00;103101.91;5075876;27;45583;-75
2022/03/18 04:14:33;;;;;;;;;49.33;40.33;;;;;22.93;26.00;103216.03;5075728;27;45725;-75
2022/03/18 04:16:58;;;;;;;;;48.33;40.00;;;;;22.86;26.07;103218.72;5075959;27;45428;-75
2022/03/18 04:19:24;;;;;;;;;41.00;37.33;;;;;22.81;25.83;103212.34;5075975;27;45403;-75
2022/03/18 04:21:49;;;;;;;;;40.00;37.00;;;;;22.94;26.08;103230.50;5075652;27;45589;-75
2022/03/18 04:24:15;;;;;;;;;40.00;36.33;;;;;22.70;25.73;103190.59;5075331;27;45453;-75
2022/03/18 04:26:41;;;;;;;;;50.33;40.67;;;;;22.95;25.61;103218.75;5075591;27;45493;-75
2022/03/18 04:29:08;;;;;;;;;47.33;40.67;;;;;23.06;25.70;103200.78;5075769;27;45358;-75
2022/03/18 04:31:33;;;;;;;;;52.33;40.33;;;;;23.30;25.58;103226.22;5075587;27;45338;-75
2022/03/18 04:33:59;;;;;;;;;48.67;41.67;;;;;23.28;25.54;103220.78;5075402;27;45367;-75
2022/03/18 04:36:24;;;;;;;;;46.67;39.67;;;;;23.12;25.64;103211.69;5075498;27;45333;-75
2022/03/18 04:38:50;;;;;;;;;45.67;41.00;;;;;23.33;25.58;103245.19;5075220;27;45505;-75
2022/03/18 04:41:15;;;;;;;;;52.67;42.33;;;;;23.37;25.58;103244.31;5075754;28;45494;-75
2022/03/18 04:43:40;;;;;;;;;43.67;37.00;;;;;23.32;25.47;103247.88;5075521;27;45492;-75
2022/03/18 04:46:06;;;;;;;;;50.33;42.33;;;;;23.15;25.27;103240.59;5075438;28;45309;-75
2022/03/18 04:48:31;;;;;;;;;55.00;44.00;;;;;22.91;25.43;103234.09;5075510;28;45529;-75
2022/03/18 04:50:57;;;;;;;;;49.67;41.33;;;;;22.64;25.41;103180.66;5075109;27;45774;-75
2022/03/18 04:53:22;;;;;;;;;48.00;41.00;;;;;22.86;25.29;103254.78;5075371;27;45946;-75
2022/03/18 04:55:47;;;;;;;;;44.00;37.00;;;;;22.81;25.48;103259.25;5075169;27;45273;-75
2022/03/18 04:58:13;;;;;;;;;42.33;37.33;;;;;22.93;25.57;103264.75;5075407;27;45279;-74
2022/03/18 05:00:38;;;;;;;;;48.33;41.00;;;;;23.01;25.21;103258.50;5076069;27;45621;-74
2022/03/18 05:03:03;;;;;;;;;40.00;36.00;;;;;22.82;25.57;103242.13;5078740;27;45814;-75
2022/03/18 05:05:29;;;;;;;;;45.67;40.00;;;;;22.90;25.33;103231.38;5078606;27;45367;-75
2022/03/18 05:07:54;;;;;;;;;46.67;39.00;;;;;23.12;25.20;103260.44;5078819;27;45389;-74
2022/03/18 05:10:22;;;;;;;;;44.00;39.00;;;;;23.18;25.43;103254.16;5078707;28;45443;-74
2022/03/18 05:12:48;;;;;;;;;51.00;39.33;;;;;23.00;25.19;103218.81;5078152;27;46152;-74
2022/03/18 05:15:13;;;;;;;;;46.00;39.00;;;;;23.04;25.29;103239.59;5078591;27;45527;-74
2022/03/18 05:17:40;;;;;;;;;41.00;39.00;;;;;23.13;25.13;103261.31;5078558;27;46238;-74
2022/03/18 05:20:08;;;;;;;;;43.67;40.00;;;;;23.18;24.99;103270.41;5078063;27;45449;-74
2022/03/18 05:22:34;;;;;;;;;43.67;39.33;;;;;23.11;25.08;103276.63;5078539;27;46384;-75
2022/03/18 05:25:00;;;;;;;;;41.67;38.67;;;;;22.78;25.11;103235.81;5078468;27;45332;-74
2022/03/18 05:27:25;;;;;;;;;52.67;41.67;;;;;23.19;25.35;103280.34;5078457;27;45323;-75
2022/03/18 05:29:51;;;;;;;;;33.00;31.67;;;;;22.98;24.95;103277.44;5078299;27;45406;-74
2022/03/18 05:32:17;;;;;;;;;44.00;39.00;;;;;22.98;25.16;103281.06;5078251;27;45823;-75
2022/03/18 05:34:43;;;;;;;;;42.00;36.33;;;;;22.92;25.22;103284.63;5077887;27;45361;-74
2022/03/18 05:37:08;;;;;;;;;34.00;30.33;;;;;22.90;24.92;103274.69;5078276;27;45379;-75
2022/03/18 05:39:34;;;;;;;;;37.33;32.33;;;;;22.78;24.96;103280.88;5078304;27;45391;-75
2022/03/18 05:41:59;;;;;;;;;35.67;34.00;;;;;22.69;25.13;103278.13;5078032;27;45306;-75
2022/03/18 05:44:25;;;;;;;;;39.67;36.33;;;;;22.77;25.02;103293.53;5077922;27;45378;-74
2022/03/18 05:46:51;;;;;;;;;34.67;33.67;;;;;22.56;24.93;103269.88;5077514;27;45747;-75
2022/03/18 05:49:20;;;;;;;;;41.00;32.33;;;;;22.77;24.93;103295.34;5074937;27;45508;-75
2022/03/18 05:51:46;;;;;;;;;35.67;31.33;;;;;22.79;25.00;103298.94;5077092;27;45537;-74
2022/03/18 05:54:12;;;;;;;;;32.67;31.67;;;;;22.37;24.99;103267.91;5077711;27;45540;-75
2022/03/18 05:56:54;;;;;;;;;34.00;29.67;;;;;22.64;25.30;103297.00;5078044;27;45419;-75
2022/03/18 05:59:25;;;;;;;;;34.00;29.33;;;;;22.65;24.98;103303.34;5076186;28;45501;-74
2022/03/18 06:01:56;;;;;;;;;37.67;34.33;;;;;22.79;24.73;103298.94;5077643;28;46188;-75
2022/03/18 06:04:22;;;;;;;;;28.67;25.33;;;;;22.75;24.81;103294.41;5077548;27;45697;-75
2022/03/18 06:06:48;;;;;;;;;39.00;31.00;;;;;22.87;24.87;103297.22;5077503;28;45390;-74
2022/03/18 06:11:59;;;;;;;;;35.33;30.33;;;;;22.89;24.55;103279.16;5076628;28;45877;-75
2022/03/18 06:14:27;;;;;;;;;39.00;35.00;;;;;22.76;24.72;103259.22;5077199;27;45320;-74
2022/03/18 06:16:55;;;;;;;;;34.67;32.33;;;;;23.07;24.54;103307.28;5077381;27;45340;-75
2022/03/18 06:19:22;;;;;;;;;33.33;33.00;;;;;22.99;24.90;103300.91;5077637;28;45363;-75
2022/03/18 06:21:48;;;;;;;;;43.00;33.67;;;;;22.96;24.42;103290.97;5077355;27;46200;-74
2022/03/18 06:24:14;;;;;;;;;44.00;37.33;;;;;23.16;24.32;103315.50;5075904;28;45496;-75
2022/03/18 06:26:40;;;;;;;;;42.00;39.00;;;;;23.05;24.61;103317.19;5076794;27;45751;-75
2022/03/18 06:29:06;;;;;;;;;46.00;39.33;;;;;22.96;24.77;103320.75;5078932;27;45583;-75
2022/03/18 06:31:33;;;;;;;;;37.33;37.00;;;;;22.95;24.65;103317.13;5097609;27;46011;-75
2022/03/18 06:33:58;;;;;;;;;42.67;40.33;;;;;23.08;24.63;103322.63;5094396;27;45440;-75
2022/03/18 06:36:24;;;;;;;;;39.67;33.67;;;;;22.74;24.66;103268.22;5077206;27;45351;-79
2022/03/18 06:38:49;;;;;;;;;38.67;33.00;;;;;22.87;24.28;103286.38;5057410;27;45550;-78
2022/03/18 06:41:16;;;;;;;;;37.67;33.67;;;;;22.81;24.81;103290.84;5082973;27;46162;-77
2022/03/18 06:43:42;;;;;;;;;39.33;36.33;;;;;22.74;24.40;103281.75;5066112;27;45409;-78
2022/03/18 06:46:08;;;;;;;;;34.00;32.00;;;;;22.88;24.76;103293.63;5065097;28;45379;-77
2022/03/18 06:48:33;;;;;;;;;31.00;29.00;;;;;23.02;24.43;103331.59;5075424;28;45384;-78
2022/03/18 06:51:00;;;;;;;;;41.67;37.00;;;;;22.85;24.60;103298.09;5075047;28;47189;-77
2022/03/18 06:53:26;;;;;;;;;38.67;34.00;;;;;23.07;24.53;103326.25;5076182;27;45466;-77
2022/03/18 06:55:52;;;;;;;;;38.33;32.33;;;;;22.99;24.50;103333.41;5077053;27;45199;-78
2022/03/18 06:58:17;;;;;;;;;34.67;33.67;;;;;22.93;24.20;103324.31;5076606;27;45224;-79
2022/03/18 07:00:42;;;;;;;;;35.67;33.33;;;;;22.88;24.42;103301.75;5077091;27;45307;-79
2022/03/18 07:03:08;;;;;;;;;36.00;31.67;;;;;23.15;24.42;103331.75;5076540;27;45474;-81
2022/03/18 07:05:33;;;;;;;;;32.33;28.33;;;;;22.85;24.56;103296.28;5075325;28;45897;-81
2022/03/18 07:07:59;;;;;;;;;39.67;35.67;;;;;22.76;24.10;103264.63;5065286;28;45364;-83
2022/03/18 07:10:25;;;;;;;;;34.00;31.33;;;;;23.10;24.35;103329.88;5057196;27;45317;-83
2022/03/18 07:12:50;;;;;;;;;32.33;31.00;;;;;22.53;24.20;103215.75;5067671;28;45269;-83
2022/03/18 07:15:16;;;;;;;;;31.67;27.33;;;;;23.10;24.08;103326.25;5086212;27;45459;-79
2022/03/18 07:17:59;;;;;;;;;28.67;27.33;;;;;22.98;24.33;103318.03;5076134;27;45522;-79
2022/03/18 07:20:30;;;;;;;;;31.33;30.00;;;;;22.88;24.31;103306.22;5075046;27;45570;-79
2022/03/18 07:23:16;;;;;;;;;28.33;28.33;;;;;22.84;24.29;103296.28;5070027;27;45499;-78
2022/03/18 07:25:47;;;;;;;;;36.00;32.67;;;;;22.87;24.24;103329.69;5076266;27;45478;-78
2022/03/18 07:28:15;;;;;;;;;35.33;30.33;;;;;22.96;24.26;103334.28;5076296;27;45432;-78
2022/03/18 07:30:42;;;;;;;;;24.33;23.33;;;;;22.96;24.21;103321.63;5075761;27;46247;-78
2022/03/18 07:33:08;;;;;;;;;37.33;33.00;;;;;22.73;24.40;103277.25;5076241;27;45551;-78
2022/03/18 07:35:35;;;;;;;;;27.00;25.33;;;;;23.09;24.04;103309.13;5074811;27;45367;-78
2022/03/18 07:38:02;;;;;;;;;25.33;23.33;;;;;23.07;24.16;103300.06;5075801;27;45526;-77
2022/03/18 07:40:28;;;;;;;;;34.00;31.00;;;;;23.08;24.04;103314.50;5076253;27;46121;-77
2022/03/18 07:42:55;;;;;;;;;39.00;34.00;;;;;22.95;24.14;103311.72;5076318;27;45318;-76
2022/03/18 07:45:22;;;;;;;;;28.00;26.33;;;;;22.94;24.29;103307.19;5056013;28;45403;-78
2022/03/18 07:47:51;;;;;;;;;33.00;29.67;;;;;22.74;23.95;103296.22;5093854;27;45333;-78
2022/03/18 07:50:20;;;;;;;;;31.33;28.00;;;;;22.83;24.33;103311.63;5066387;27;45504;-78
2022/03/18 07:52:52;;;;;;;;;33.67;31.00;;;;;22.51;24.30;103258.09;5089325;27;45506;-78
2022/03/18 07:55:22;;;;;;;;;34.67;31.00;;;;;22.89;24.32;103322.47;5096504;27;45355;-78
2022/03/18 07:57:48;;;;;;;;;32.00;28.00;;;;;22.67;24.29;103282.59;5090885;27;45470;-78
2022/03/18 08:00:15;;;;;;;;;29.00;28.00;;;;;22.62;23.83;103266.34;5076041;27;45388;-78
2022/03/18 08:02:42;;;;;;;;;26.33;23.33;;;;;22.82;24.30;103298.97;5058227;28;45373;-78
2022/03/18 08:05:08;;;;;;;;;26.33;23.00;;;;;22.63;24.20;103295.22;5057623;28;45419;-77
2022/03/18 08:07:34;;;;;;;;;24.00;22.00;;;;;22.49;24.09;103250.88;5081347;27;45471;-78
2022/03/18 08:10:00;;;;;;;;;30.00;25.00;;;;;22.89;24.14;103308.94;5084495;27;46104;-78
2022/03/18 08:12:29;;;;;;;;;29.33;26.00;;;;;22.69;24.18;103259.19;5080124;27;45563;-78
2022/03/18 08:14:59;;;;;;;;;23.33;21.67;;;;;22.87;24.26;103280.97;5093046;27;45458;-78
2022/03/18 08:17:25;;;;;;;;;25.67;25.67;;;;;22.99;24.09;103328.00;5075379;27;45513;-79
2022/03/18 08:19:51;;;;;;;;;25.00;22.67;;;;;22.91;24.13;103328.84;5084854;27;45463;-77
2022/03/18 08:22:20;;;;;;;;;25.67;24.67;;;;;22.51;24.24;103241.88;5082917;27;45565;-81
2022/03/18 08:24:45;;;;;;;;;26.67;23.00;;;;;22.91;24.24;103315.28;5074790;27;45489;-79
2022/03/18 08:27:11;;;;;;;;;30.00;25.67;;;;;22.88;24.19;103288.22;5095938;27;45554;-77
2022/03/18 08:29:38;;;;;;;;;23.67;23.67;;;;;23.26;23.84;103333.66;5076925;27;46017;-77
2022/03/18 08:32:04;;;;;;;;;28.00;27.00;;;;;23.27;23.85;103335.44;5057007;27;45448;-80
2022/03/18 08:34:29;;;;;;;;;26.33;26.33;;;;;23.31;24.02;103335.50;5056870;27;45414;-77
2022/03/18 08:36:54;;;;;;;;;26.67;22.33;;;;;23.28;23.78;103329.13;5072218;27;45425;-78
2022/03/18 08:39:20;;;;;;;;;29.33;24.67;;;;;23.32;24.00;103339.97;5074372;27;46153;-76
2022/03/18 08:41:45;;;;;;;;;24.00;23.33;;;;;23.35;23.91;103343.63;5082182;27;45450;-74
2022/03/18 08:44:10;;;;;;;;;25.33;25.33;;;;;23.32;23.58;103286.75;5076304;27;45491;-76
2022/03/18 08:46:36;;;;;;;;;26.67;22.33;;;;;23.31;23.25;103265.94;5078893;27;46268;-76
2022/03/18 08:49:01;;;;;;;;;26.00;22.67;;;;;23.71;23.39;103335.72;5077315;27;45933;-76
2022/03/18 08:51:27;;;;;;;;;31.67;26.00;;;;;23.74;23.47;103335.72;5077496;27;45416;-76
2022/03/18 08:53:55;;;;;;;;;26.33;25.33;;;;;23.79;23.25;103339.38;5074386;27;45395;-75
2022/03/18 08:56:20;;;;;;;;;26.67;25.00;;;;;23.58;23.38;103308.53;5076765;27;45283;-76
2022/03/18 08:58:46;;;;;;;;;29.00;27.00;;;;;23.81;23.12;103324.00;5085405;27;53617;-76
2022/03/18 09:01:12;;;;;;;;;28.67;25.00;;;;;24.07;23.25;103329.56;5077591;27;45738;-76
2022/03/18 09:03:37;;;;;;;;;26.33;22.00;;;;;23.96;22.91;103313.25;5075470;27;45513;-76
2022/03/18 09:06:04;;;;;;;;;30.00;27.00;;;;;24.17;23.10;103329.63;5071910;27;45436;-78
2022/03/18 09:08:29;;;;;;;;;28.00;25.33;;;;;24.03;22.89;103295.19;5061204;28;45453;-78
2022/03/18 09:10:55;;;;;;;;;20.67;19.00;;;;;24.05;22.47;103327.75;5067990;28;45435;-77
2022/03/18 09:13:20;;;;;;;;;2.33;1.00;;;;;24.03;22.60;103292.50;5075994;27;45443;-77
2022/03/18 09:15:46;;;;;;;;;28.33;25.67;;;;;24.01;22.41;103291.59;5074714;27;45471;-78
2022/03/18 09:18:11;;;;;;;;;26.00;23.00;;;;;24.32;22.64;103341.41;5076350;27;45297;-79
2022/03/18 09:20:36;;;;;;;;;26.67;25.00;;;;;24.25;22.24;103334.16;5073940;27;45470;-79
2022/03/18 09:23:04;;;;;;;;;24.67;21.00;;;;;24.35;22.51;103348.66;5074102;27;45862;-76
2022/03/18 09:25:29;;;;;;;;;20.67;19.67;;;;;24.10;22.27;103306.97;5079128;27;45524;-78
2022/03/18 09:27:55;;;;;;;;;24.33;20.00;;;;;24.27;22.15;103343.19;5073639;27;46000;-79
2022/03/18 09:30:20;;;;;;;;;22.33;16.67;;;;;24.39;21.88;103346.88;5074767;27;45406;-78
2022/03/18 09:32:46;;;;;;;;;21.33;20.00;;;;;24.30;21.87;103321.50;5071899;27;45364;-84
2022/03/18 09:35:14;;;;;;;;;27.33;25.67;;;;;24.56;21.45;103344.19;5074441;27;45357;-83
2022/03/18 09:37:40;;;;;;;;;19.33;19.33;;;;;24.65;21.74;103346.91;5073145;27;45509;-82
2022/03/18 09:40:08;;;;;;;;;22.00;22.00;;;;;24.69;21.52;103347.84;5080650;27;45745;-78
2022/03/18 09:43:15;;;;;;;;;19.00;16.00;;;;;24.59;21.58;103317.03;5104815;27;45512;-81
2022/03/18 09:45:41;;;;;;;;;18.67;18.00;;;;;24.79;21.15;103342.41;5074072;27;45463;-81
2022/03/18 09:48:11;;;;;;;;;25.33;22.67;;;;;24.70;21.21;103339.69;5073002;27;46686;-81
2022/03/18 09:50:38;;;;;;;;;18.00;17.00;;;;;24.80;20.84;103354.19;5074796;27;46434;-82
2022/03/18 09:53:05;;;;;;;;;24.67;21.67;;;;;24.84;20.43;103350.56;5077389;27;45361;-79
2022/03/18 09:55:31;;;;;;;;;19.67;17.67;;;;;24.47;20.54;103290.78;5077501;27;45374;-78
2022/03/18 09:57:57;;;;;;;;;18.33;14.00;;;;;24.83;20.46;103348.75;5078156;27;45381;-77
2022/03/18 10:00:22;;;;;;;;;24.33;19.67;;;;;24.99;20.36;103349.66;5081252;27;45532;-77
2022/03/18 10:03:10;;;;;;;;;20.67;20.00;;;;;25.05;20.75;103313.44;5076923;27;45405;-78
2022/03/18 10:05:46;;;;;;;;;21.33;16.67;;;;;25.46;20.03;103351.44;5077136;27;45523;-74
2022/03/18 10:08:11;;;;;;;;;27.33;22.33;;;;;25.13;19.90;103322.47;5069890;27;46160;-74
2022/03/18 10:10:47;;;;;;;;;13.67;12.33;;;;;24.99;19.26;103315.28;5058822;27;45501;-85
2022/03/18 10:13:15;;;;;;;;;16.67;15.00;;;;;25.00;18.94;103352.34;5066853;27;45518;-81
2022/03/18 10:15:40;;;;;;;;;17.00;16.00;;;;;25.14;19.64;103348.75;5067839;27;45578;-84
2022/03/18 10:18:11;;;;;;;;;16.00;10.67;;;;;25.22;19.77;103338.78;5072977;27;45758;-83
2022/03/18 10:20:40;;;;;;;;;15.00;13.33;;;;;25.43;19.89;103327.00;5061626;27;45508;-83
2022/03/18 10:23:25;;;;;;;;;14.00;14.00;;;;;25.66;19.28;103345.06;5075474;27;45429;-87
2022/03/18 10:25:57;;;;;;;;;11.33;10.33;;;;;25.27;19.19;103307.06;5069713;27;45662;-76
2022/03/18 10:28:37;;;;;;;;;14.00;11.33;;;;;25.29;19.14;103346.00;5067793;27;47167;-78
2022/03/18 10:31:14;;;;;;;;;13.33;11.67;;;;;25.38;19.11;103331.53;5069253;27;45530;-77
2022/03/18 10:39:27;;;;;;;;;11.00;11.00;;;;;25.50;18.32;103325.19;5067020;28;45409;-81
2022/03/18 10:41:57;;;;;;;;;12.00;11.00;;;;;25.63;18.65;103336.91;5071179;27;45518;-81
2022/03/18 10:44:23;;;;;;;;;14.33;12.67;;;;;25.64;18.16;103319.66;5070143;27;45766;-78
2022/03/18 10:46:49;;;;;;;;;15.00;11.33;;;;;25.41;18.20;103311.59;5067842;28;45535;-81
2022/03/18 10:49:15;;;;;;;;;14.00;11.67;;;;;25.44;18.57;103308.88;5067141;27;45546;-78
2022/03/18 10:51:41;;;;;;;;;21.67;20.33;;;;;25.49;18.84;103298.91;5069332;27;45584;-80
2022/03/18 10:54:07;;;;;;;;;16.00;15.33;;;;;25.58;18.26;103285.25;5070064;27;45571;-77
2022/03/18 10:56:55;;;;;;;;;15.00;14.00;;;;;25.96;18.85;103322.28;5103503;27;45629;-80
2022/03/18 10:59:26;;;;;;;;;14.67;10.67;;;;;25.95;18.86;103306.88;5069307;27;46603;-81
2022/03/18 11:01:51;;;;;;;;;12.00;12.00;;;;;25.90;18.43;103286.03;5064285;27;45435;-84
2022/03/18 11:04:18;;;;;;;;;12.00;10.33;;;;;26.06;18.09;103314.09;5069818;27;45518;-79
2022/03/18 11:07:29;;;;;;;;;11.00;11.00;;;;;25.86;18.07;103312.34;5073942;27;45534;-79
2022/03/18 11:11:06;;;;;;;;;12.00;11.00;;;;;25.82;18.01;103277.91;5066761;27;45559;-79
2022/03/18 11:12:21;;;;;;;;;14.33;9.33;;;;;25.30;18.01;103187.53;5075555;27;45543;-80
2022/03/18 11:14:51;;;;;;;;;13.00;13.00;;;;;26.30;17.93;103318.47;5070334;27;45437;-79
2022/03/18 11:17:17;;;;;;;;;12.67;11.67;;;;;26.29;17.83;103316.69;5066132;27;45493;-79
2022/03/18 11:19:44;;;;;;;;;11.00;10.00;;;;;26.13;17.31;103288.66;5067557;27;45573;-77
2022/03/18 11:22:10;;;;;;;;;13.33;11.00;;;;;25.82;17.30;103251.66;5067363;27;46300;-79
2022/03/18 11:24:37;;;;;;;;;10.33;9.00;;;;;26.22;17.34;103307.66;5069970;27;45459;-78
2022/03/18 11:27:03;;;;;;;;;10.67;10.33;;;;;25.85;17.63;103239.84;5056804;27;45490;-78